createdAt,value
2023-01-12T00:00:57.695Z,1006.62
2023-01-12T00:01:57.726Z,1006.54
2023-01-12T00:02:57.700Z,1006.61
2023-01-12T00:03:57.659Z,1006.62
2023-01-12T00:04:57.645Z,1006.62
2023-01-12T00:05:57.628Z,1006.60
2023-01-12T00:06:57.615Z,1006.60
2023-01-12T00:07:57.608Z,1006.62
2023-01-12T00:08:57.618Z,1006.71
2023-01-12T00:09:57.598Z,1006.70
2023-01-12T00:10:57.582Z,1006.74
2023-01-12T00:11:57.589Z,1006.81
2023-01-12T00:12:57.586Z,1006.74
2023-01-12T00:13:57.542Z,1006.73
2023-01-12T00:14:57.563Z,1006.76
2023-01-12T00:15:57.592Z,1006.75
2023-01-12T00:16:57.515Z,1006.74
2023-01-12T00:17:57.510Z,1006.75
2023-01-12T00:18:57.515Z,1006.74
2023-01-12T00:19:57.477Z,1006.79
2023-01-12T00:20:57.464Z,1006.82
2023-01-12T00:21:57.469Z,1006.85
2023-01-12T00:22:57.450Z,1006.86
2023-01-12T00:23:57.447Z,1006.78
2023-01-12T00:24:57.444Z,1006.77
2023-01-12T00:25:57.423Z,1006.73
2023-01-12T00:26:57.406Z,1006.77
2023-01-12T00:27:57.444Z,1006.73
2023-01-12T00:28:57.402Z,1006.56
2023-01-12T00:29:57.395Z,1006.59
2023-01-12T00:30:57.388Z,1006.49
2023-01-12T00:31:57.360Z,1006.59
2023-01-12T00:32:57.346Z,1006.56
2023-01-12T00:33:57.336Z,1006.62
2023-01-12T00:34:57.322Z,1006.59
2023-01-12T00:35:57.315Z,1006.56
2023-01-12T00:36:57.326Z,1006.48
2023-01-12T00:37:57.285Z,1006.48
2023-01-12T00:38:57.276Z,1006.67
2023-01-12T00:40:02.619Z,1006.55
2023-01-12T00:40:58.245Z,1006.42
2023-01-12T00:41:57.237Z,1006.44
2023-01-12T00:42:57.225Z,1006.44
2023-01-12T00:43:57.268Z,1006.45
2023-01-12T00:44:57.229Z,1006.42
2023-01-12T00:45:57.226Z,1006.51
2023-01-12T00:46:57.187Z,1006.56
2023-01-12T00:47:57.183Z,1006.51
2023-01-12T00:48:57.166Z,1006.51
2023-01-12T00:49:57.156Z,1006.52
2023-01-12T00:50:57.168Z,1006.44
2023-01-12T00:51:57.149Z,1006.53
2023-01-12T00:52:57.118Z,1006.51
2023-01-12T00:53:57.115Z,1006.43
2023-01-12T00:54:57.101Z,1006.54
2023-01-12T00:55:57.089Z,1006.52
2023-01-12T00:56:57.105Z,1006.40
2023-01-12T00:57:57.067Z,1006.43
2023-01-12T00:58:57.059Z,1006.45
2023-01-12T00:59:57.066Z,1006.39
2023-01-12T01:00:57.092Z,1006.38
2023-01-12T01:01:57.084Z,1006.46
2023-01-12T01:02:57.084Z,1006.39
2023-01-12T01:03:57.007Z,1006.35
2023-01-12T01:04:56.989Z,1006.32
2023-01-12T01:05:56.992Z,1006.28
2023-01-12T01:06:56.972Z,1006.25
2023-01-12T01:07:56.958Z,1006.24
2023-01-12T01:08:56.965Z,1006.27
2023-01-12T01:09:56.935Z,1006.32
2023-01-12T01:10:56.926Z,1006.34
2023-01-12T01:11:56.916Z,1006.37
2023-01-12T01:12:56.904Z,1006.42
2023-01-12T01:13:56.906Z,1006.32
2023-01-12T01:14:56.881Z,1006.31
2023-01-12T01:15:56.947Z,1006.35
2023-01-12T01:16:56.875Z,1006.34
2023-01-12T01:17:56.868Z,1006.37
2023-01-12T01:18:56.854Z,1006.32
2023-01-12T01:19:56.835Z,1006.35
2023-01-12T01:20:56.821Z,1006.37
2023-01-12T01:21:56.801Z,1006.41
2023-01-12T01:22:56.798Z,1006.40
2023-01-12T01:23:56.792Z,1006.32
2023-01-12T01:24:56.775Z,1006.33
2023-01-12T01:25:56.781Z,1006.39
2023-01-12T01:26:56.755Z,1006.38
2023-01-12T01:27:56.732Z,1006.31
2023-01-12T01:28:56.765Z,1006.41
2023-01-12T01:29:56.721Z,1006.37
2023-01-12T01:30:56.742Z,1006.24
2023-01-12T01:31:56.723Z,1006.20
2023-01-12T01:32:56.685Z,1006.18
2023-01-12T01:33:56.683Z,1006.11
2023-01-12T01:34:56.688Z,1006.14
2023-01-12T01:35:56.662Z,1006.06
2023-01-12T01:36:56.632Z,1006.02
2023-01-12T01:37:56.634Z,1005.95
2023-01-12T01:38:56.619Z,1005.91
2023-01-12T01:39:56.605Z,1006.03
2023-01-12T01:40:56.605Z,1005.92
2023-01-12T01:41:56.602Z,1005.95
2023-01-12T01:42:56.597Z,1005.91
2023-01-12T01:43:56.575Z,1005.94
2023-01-12T01:44:56.556Z,1005.91
2023-01-12T01:45:56.576Z,1006.04
2023-01-12T01:46:56.540Z,1005.86
2023-01-12T01:47:56.577Z,1005.90
2023-01-12T01:48:56.517Z,1005.88
2023-01-12T01:49:56.517Z,1005.88
2023-01-12T01:50:56.492Z,1005.90
2023-01-12T01:51:56.495Z,1005.92
2023-01-12T01:52:56.465Z,1005.96
2023-01-12T01:53:56.464Z,1005.90
2023-01-12T01:54:56.450Z,1005.87
2023-01-12T01:55:56.432Z,1005.89
2023-01-12T01:56:56.423Z,1005.89
2023-01-12T01:57:56.428Z,1006.00
2023-01-12T01:58:56.410Z,1005.99
2023-01-12T01:59:56.401Z,1005.95
2023-01-12T02:00:56.405Z,1006.01
2023-01-12T02:01:56.465Z,1005.95
2023-01-12T02:02:56.484Z,1006.00
2023-01-12T02:03:56.386Z,1006.00
2023-01-12T02:04:56.330Z,1005.91
2023-01-12T02:05:56.319Z,1006.04
2023-01-12T02:06:56.324Z,1005.97
2023-01-12T02:07:56.302Z,1006.03
2023-01-12T02:08:56.302Z,1005.94
2023-01-12T02:09:56.309Z,1005.87
2023-01-12T02:10:56.279Z,1005.82
2023-01-12T02:11:56.252Z,1005.73
2023-01-12T02:12:56.261Z,1005.72
2023-01-12T02:13:56.233Z,1005.75
2023-01-12T02:14:56.219Z,1005.68
2023-01-12T02:15:56.323Z,1005.76
2023-01-12T02:16:56.206Z,1005.60
2023-01-12T02:17:56.214Z,1005.61
2023-01-12T02:18:56.187Z,1005.67
2023-01-12T02:19:56.195Z,1005.67
2023-01-12T02:20:56.209Z,1005.64
2023-01-12T02:21:56.156Z,1005.71
2023-01-12T02:22:56.138Z,1005.64
2023-01-12T02:23:56.130Z,1005.63
2023-01-12T02:24:56.125Z,1005.64
2023-01-12T02:25:56.151Z,1005.75
2023-01-12T02:26:56.092Z,1005.69
2023-01-12T02:27:56.084Z,1005.63
2023-01-12T02:28:56.065Z,1005.61
2023-01-12T02:29:56.080Z,1005.66
2023-01-12T02:30:56.122Z,1005.63
2023-01-12T02:31:56.083Z,1005.69
2023-01-12T02:32:56.056Z,1005.65
2023-01-12T02:33:56.031Z,1005.63
2023-01-12T02:34:56.018Z,1005.59
2023-01-12T02:35:56.039Z,1005.57
2023-01-12T02:36:55.998Z,1005.51
2023-01-12T02:37:55.970Z,1005.47
2023-01-12T02:38:55.965Z,1005.58
2023-01-12T02:39:56.240Z,1005.49
2023-01-12T02:40:55.955Z,1005.48
2023-01-12T02:41:55.966Z,1005.73
2023-01-12T02:42:55.922Z,1005.53
2023-01-12T02:43:55.917Z,1005.47
2023-01-12T02:44:55.926Z,1005.43
2023-01-12T02:45:55.884Z,1005.53
2023-01-12T02:46:55.879Z,1005.46
2023-01-12T02:47:55.900Z,1005.56
2023-01-12T02:48:55.867Z,1005.57
2023-01-12T02:49:55.847Z,1005.58
2023-01-12T02:50:55.867Z,1005.43
2023-01-12T02:51:55.843Z,1005.45
2023-01-12T02:52:55.819Z,1005.41
2023-01-12T02:53:55.797Z,1005.42
2023-01-12T02:54:55.787Z,1005.33
2023-01-12T02:55:55.801Z,1005.45
2023-01-12T02:56:55.775Z,1005.31
2023-01-12T02:57:55.792Z,1005.26
2023-01-12T02:58:55.783Z,1005.40
2023-01-12T02:59:55.764Z,1005.30
2023-01-12T03:00:55.803Z,1005.28
2023-01-12T03:01:55.716Z,1005.25
2023-01-12T03:02:55.738Z,1005.18
2023-01-12T03:03:55.727Z,1005.49
2023-01-12T03:04:55.720Z,1005.26
2023-01-12T03:05:55.708Z,1005.20
2023-01-12T03:06:55.688Z,1005.23
2023-01-12T03:07:55.733Z,1005.20
2023-01-12T03:08:55.674Z,1005.20
2023-01-12T03:09:55.640Z,1005.26
2023-01-12T03:10:55.656Z,1005.14
2023-01-12T03:11:55.622Z,1005.28
2023-01-12T03:12:55.650Z,1005.25
2023-01-12T03:13:55.708Z,1005.17
2023-01-12T03:14:55.585Z,1005.15
2023-01-12T03:15:55.687Z,1005.24
2023-01-12T03:16:55.554Z,1005.28
2023-01-12T03:17:55.538Z,1005.22
2023-01-12T03:18:55.564Z,1005.18
2023-01-12T03:19:55.521Z,1005.23
2023-01-12T03:20:55.520Z,1005.23
2023-01-12T03:21:55.526Z,1005.23
2023-01-12T03:22:55.488Z,1005.14
2023-01-12T03:23:55.495Z,1005.15
2023-01-12T03:24:55.489Z,1005.35
2023-01-12T03:25:55.448Z,1005.20
2023-01-12T03:26:55.475Z,1005.08
2023-01-12T03:27:55.445Z,1005.13
2023-01-12T03:28:55.425Z,1005.15
2023-01-12T03:29:55.414Z,1005.15
2023-01-12T03:30:55.393Z,1005.10
2023-01-12T03:31:55.409Z,1005.13
2023-01-12T03:32:55.400Z,1005.17
2023-01-12T03:33:55.365Z,1005.20
2023-01-12T03:34:55.357Z,1005.04
2023-01-12T03:35:55.377Z,1005.20
2023-01-12T03:36:55.361Z,1005.22
2023-01-12T03:37:55.318Z,1005.12
2023-01-12T03:38:55.321Z,1005.24
2023-01-12T03:39:55.333Z,1005.11
2023-01-12T03:40:55.288Z,1005.13
2023-01-12T03:41:55.316Z,1005.17
2023-01-12T03:42:55.274Z,1005.18
2023-01-12T03:43:55.257Z,1005.26
2023-01-12T03:44:55.249Z,1005.12
2023-01-12T03:45:55.235Z,1005.07
2023-01-12T03:46:55.317Z,1005.06
2023-01-12T03:47:55.252Z,1005.10
2023-01-12T03:48:55.207Z,1005.05
2023-01-12T03:49:55.187Z,1005.10
2023-01-12T03:50:55.185Z,1005.01
2023-01-12T03:51:55.165Z,1005.07
2023-01-12T03:52:55.200Z,1005.12
2023-01-12T03:53:55.161Z,1005.03
2023-01-12T03:54:55.142Z,1005.00
2023-01-12T03:55:55.155Z,1005.11
2023-01-12T03:56:55.115Z,1005.07
2023-01-12T03:57:55.124Z,1005.08
2023-01-12T03:58:55.086Z,1005.10
2023-01-12T03:59:55.089Z,1005.06
2023-01-12T04:00:55.203Z,1005.03
2023-01-12T04:01:55.203Z,1005.10
2023-01-12T04:02:55.124Z,1005.05
2023-01-12T04:03:55.039Z,1005.08
2023-01-12T04:04:55.027Z,1005.11
2023-01-12T04:05:55.018Z,1005.16
2023-01-12T04:06:55.010Z,1005.07
2023-01-12T04:07:55.038Z,1005.04
2023-01-12T04:08:54.981Z,1005.06
2023-01-12T04:09:54.977Z,1005.10
2023-01-12T04:10:54.972Z,1005.03
2023-01-12T04:11:54.976Z,1005.07
2023-01-12T04:12:54.952Z,1005.05
2023-01-12T04:13:54.974Z,1005.06
2023-01-12T04:14:54.927Z,1004.94
2023-01-12T04:15:54.910Z,1004.98
2023-01-12T04:16:54.904Z,1004.94
2023-01-12T04:17:54.893Z,1004.91
2023-01-12T04:18:54.881Z,1004.84
2023-01-12T04:19:54.900Z,1004.81
2023-01-12T04:20:54.863Z,1004.90
2023-01-12T04:21:54.836Z,1004.80
2023-01-12T04:22:54.836Z,1004.85
2023-01-12T04:23:54.831Z,1004.84
2023-01-12T04:24:54.833Z,1004.80
2023-01-12T04:25:54.810Z,1004.84
2023-01-12T04:26:54.786Z,1004.81
2023-01-12T04:27:54.794Z,1004.90
2023-01-12T04:28:54.789Z,1004.76
2023-01-12T04:29:54.771Z,1004.75
2023-01-12T04:30:54.739Z,1004.78
2023-01-12T04:31:54.831Z,1004.74
2023-01-12T04:32:54.738Z,1004.77
2023-01-12T04:33:54.719Z,1004.70
2023-01-12T04:34:54.716Z,1004.67
2023-01-12T04:35:54.703Z,1004.73
2023-01-12T04:36:54.707Z,1004.69
2023-01-12T04:37:54.780Z,1004.73
2023-01-12T04:38:54.734Z,1004.71
2023-01-12T04:39:54.701Z,1004.70
2023-01-12T04:40:54.638Z,1004.71
2023-01-12T04:41:54.625Z,1004.67
2023-01-12T04:42:54.642Z,1004.63
2023-01-12T04:43:54.654Z,1004.64
2023-01-12T04:44:54.605Z,1004.60
2023-01-12T04:45:54.851Z,1004.62
2023-01-12T04:46:54.582Z,1004.53
2023-01-12T04:47:54.579Z,1004.74
2023-01-12T04:48:54.557Z,1004.64
2023-01-12T04:49:54.548Z,1004.58
2023-01-12T04:50:54.561Z,1004.63
2023-01-12T04:51:54.540Z,1004.46
2023-01-12T04:52:54.509Z,1004.64
2023-01-12T04:53:54.514Z,1004.50
2023-01-12T04:54:56.725Z,1004.48
2023-01-12T04:55:54.499Z,1004.52
2023-01-12T04:56:54.473Z,1004.43
2023-01-12T04:57:54.459Z,1004.48
2023-01-12T04:58:54.449Z,1004.43
2023-01-12T04:59:54.457Z,1004.53
2023-01-12T05:00:54.495Z,1004.52
2023-01-12T05:01:54.603Z,1004.47
2023-01-12T05:02:54.403Z,1004.45
2023-01-12T05:03:54.404Z,1004.47
2023-01-12T05:04:54.377Z,1004.47
2023-01-12T05:05:54.390Z,1004.43
2023-01-12T05:06:54.370Z,1004.50
2023-01-12T05:07:54.344Z,1004.46
2023-01-12T05:08:54.342Z,1004.46
2023-01-12T05:09:54.330Z,1004.39
2023-01-12T05:10:54.349Z,1004.47
2023-01-12T05:11:54.326Z,1004.41
2023-01-12T05:12:54.300Z,1004.53
2023-01-12T05:13:54.288Z,1004.51
2023-01-12T05:14:54.274Z,1004.38
2023-01-12T05:15:54.292Z,1004.35
2023-01-12T05:16:54.405Z,1004.34
2023-01-12T05:17:54.247Z,1004.29
2023-01-12T05:18:54.248Z,1004.32
2023-01-12T05:19:54.223Z,1004.23
2023-01-12T05:20:54.212Z,1004.23
2023-01-12T05:21:54.237Z,1004.37
2023-01-12T05:22:54.195Z,1004.31
2023-01-12T05:23:54.190Z,1004.31
2023-01-12T05:24:54.175Z,1004.29
2023-01-12T05:25:54.151Z,1004.29
2023-01-12T05:26:54.137Z,1004.20
2023-01-12T05:27:54.164Z,1004.26
2023-01-12T05:28:54.126Z,1004.28
2023-01-12T05:29:54.108Z,1004.31
2023-01-12T05:30:54.156Z,1004.19
2023-01-12T05:31:54.128Z,1004.18
2023-01-12T05:32:54.113Z,1004.23
2023-01-12T05:33:54.074Z,1004.25
2023-01-12T05:34:54.068Z,1004.30
2023-01-12T05:35:54.045Z,1004.28
2023-01-12T05:36:54.033Z,1004.20
2023-01-12T05:37:54.035Z,1004.26
2023-01-12T05:38:54.039Z,1004.23
2023-01-12T05:39:54.012Z,1004.20
2023-01-12T05:40:53.990Z,1004.29
2023-01-12T05:41:53.988Z,1004.26
2023-01-12T05:42:53.967Z,1004.23
2023-01-12T05:43:54.002Z,1004.24
2023-01-12T05:44:53.953Z,1004.19
2023-01-12T05:45:54.078Z,1004.33
2023-01-12T05:47:03.355Z,1004.27
2023-01-12T05:47:53.919Z,1004.22
2023-01-12T05:48:53.943Z,1004.23
2023-01-12T05:49:53.904Z,1004.35
2023-01-12T05:50:53.887Z,1004.31
2023-01-12T05:51:53.873Z,1004.22
2023-01-12T05:52:53.871Z,1004.30
2023-01-12T05:53:53.864Z,1004.29
2023-01-12T05:54:53.879Z,1004.24
2023-01-12T05:55:53.843Z,1004.31
2023-01-12T05:56:53.822Z,1004.24
2023-01-12T05:57:53.832Z,1004.32
2023-01-12T05:58:53.815Z,1004.30
2023-01-12T05:59:53.803Z,1004.23
2023-01-12T06:00:53.824Z,1004.23
2023-01-12T06:01:53.891Z,1004.21
2023-01-12T06:02:53.815Z,1004.25
2023-01-12T06:03:53.763Z,1004.37
2023-01-12T06:04:53.843Z,1004.27
2023-01-12T06:05:53.724Z,1004.28
2023-01-12T06:06:53.748Z,1004.36
2023-01-12T06:07:53.720Z,1004.35
2023-01-12T06:08:53.696Z,1004.27
2023-01-12T06:09:53.707Z,1004.34
2023-01-12T06:10:53.680Z,1004.18
2023-01-12T06:11:53.684Z,1004.12
2023-01-12T06:12:53.675Z,1004.29
2023-01-12T06:13:53.638Z,1004.21
2023-01-12T06:14:53.638Z,1004.16
2023-01-12T06:15:53.657Z,1004.16
2023-01-12T06:16:53.640Z,1004.16
2023-01-12T06:17:53.623Z,1004.12
2023-01-12T06:18:53.602Z,1004.22
2023-01-12T06:19:53.584Z,1004.22
2023-01-12T06:20:53.561Z,1004.21
2023-01-12T06:21:53.560Z,1004.12
2023-01-12T06:22:53.569Z,1004.20
2023-01-12T06:23:53.532Z,1004.11
2023-01-12T06:24:53.531Z,1004.24
2023-01-12T06:25:53.523Z,1004.12
2023-01-12T06:26:53.507Z,1004.10
2023-01-12T06:27:53.488Z,1004.19
2023-01-12T06:28:53.502Z,1004.18
2023-01-12T06:29:53.470Z,1004.17
2023-01-12T06:30:53.492Z,1004.12
2023-01-12T06:31:53.454Z,1004.12
2023-01-12T06:32:53.471Z,1004.15
2023-01-12T06:33:53.436Z,1004.13
2023-01-12T06:34:53.439Z,1004.16
2023-01-12T06:35:53.413Z,1004.11
2023-01-12T06:36:53.398Z,1004.09
2023-01-12T06:37:53.398Z,1004.11
2023-01-12T06:38:53.399Z,1004.14
2023-01-12T06:39:53.361Z,1004.07
2023-01-12T06:40:53.360Z,1004.12
2023-01-12T06:41:53.353Z,1004.04
2023-01-12T06:42:53.383Z,1004.05
2023-01-12T06:43:53.321Z,1004.01
2023-01-12T06:44:53.329Z,1004.03
2023-01-12T06:45:53.302Z,1003.96
2023-01-12T06:46:53.352Z,1004.01
2023-01-12T06:47:53.290Z,1003.99
2023-01-12T06:48:53.263Z,1003.99
2023-01-12T06:49:53.255Z,1003.98
2023-01-12T06:50:53.262Z,1003.91
2023-01-12T06:51:53.271Z,1003.90
2023-01-12T06:52:53.226Z,1003.90
2023-01-12T06:53:53.214Z,1003.97
2023-01-12T06:54:53.200Z,1003.96
2023-01-12T06:55:53.197Z,1003.88
2023-01-12T06:56:53.199Z,1003.96
2023-01-12T06:57:53.189Z,1003.88
2023-01-12T06:58:53.154Z,1003.89
2023-01-12T06:59:53.181Z,1003.84
2023-01-12T07:00:53.207Z,1003.87
2023-01-12T07:01:53.176Z,1003.84
2023-01-12T07:02:53.143Z,1003.87
2023-01-12T07:03:53.103Z,1003.91
2023-01-12T07:04:53.099Z,1003.91
2023-01-12T07:05:53.095Z,1003.84
2023-01-12T07:06:53.098Z,1003.90
2023-01-12T07:07:53.100Z,1003.91
2023-01-12T07:08:53.064Z,1003.90
2023-01-12T07:09:53.075Z,1003.98
2023-01-12T07:10:53.044Z,1003.88
2023-01-12T07:11:53.030Z,1003.90
2023-01-12T07:12:53.051Z,1003.91
2023-01-12T07:13:53.037Z,1003.82
2023-01-12T07:14:52.995Z,1003.86
2023-01-12T07:15:52.978Z,1003.86
2023-01-12T07:16:52.967Z,1003.79
2023-01-12T07:17:52.965Z,1003.91
2023-01-12T07:18:52.956Z,1003.85
2023-01-12T07:19:52.929Z,1003.85
2023-01-12T07:20:52.932Z,1003.69
2023-01-12T07:21:52.945Z,1003.82
2023-01-12T07:22:52.925Z,1003.76
2023-01-12T07:23:52.902Z,1003.75
2023-01-12T07:24:52.888Z,1003.79
2023-01-12T07:25:52.879Z,1003.75
2023-01-12T07:26:52.862Z,1003.73
2023-01-12T07:27:52.852Z,1003.68
2023-01-12T07:28:52.857Z,1003.65
2023-01-12T07:29:52.835Z,1003.67
2023-01-12T07:30:52.887Z,1003.71
2023-01-12T07:31:52.807Z,1003.64
2023-01-12T07:32:52.817Z,1003.71
2023-01-12T07:33:52.784Z,1003.70
2023-01-12T07:34:52.809Z,1003.63
2023-01-12T07:35:52.779Z,1003.59
2023-01-12T07:36:52.759Z,1003.69
2023-01-12T07:37:52.756Z,1003.66
2023-01-12T07:38:52.756Z,1003.57
2023-01-12T07:39:52.729Z,1003.55
2023-01-12T07:40:52.729Z,1003.63
2023-01-12T07:41:52.707Z,1003.55
2023-01-12T07:42:52.703Z,1003.56
2023-01-12T07:43:52.682Z,1003.51
2023-01-12T07:44:52.690Z,1003.55
2023-01-12T07:45:52.672Z,1003.47
2023-01-12T07:46:52.669Z,1003.47
2023-01-12T07:47:52.633Z,1003.55
2023-01-12T07:48:52.626Z,1003.61
2023-01-12T07:49:52.610Z,1003.47
2023-01-12T07:50:52.606Z,1003.51
2023-01-12T07:51:52.595Z,1003.43
2023-01-12T07:52:52.608Z,1003.46
2023-01-12T07:53:52.576Z,1003.44
2023-01-12T07:54:52.581Z,1003.38
2023-01-12T07:55:52.552Z,1003.43
2023-01-12T07:56:52.532Z,1003.39
2023-01-12T07:57:52.534Z,1003.41
2023-01-12T07:58:52.520Z,1003.42
2023-01-12T07:59:52.502Z,1003.37
2023-01-12T08:00:52.545Z,1003.40
2023-01-12T08:01:53.883Z,1003.46
2023-01-12T08:02:52.477Z,1003.37
2023-01-12T08:03:52.458Z,1003.40
2023-01-12T08:04:52.455Z,1003.34
2023-01-12T08:05:52.499Z,1003.33
2023-01-12T08:06:52.461Z,1003.32
2023-01-12T08:07:52.426Z,1003.30
2023-01-12T08:08:52.414Z,1003.36
2023-01-12T08:09:52.393Z,1003.30
2023-01-12T08:10:52.412Z,1003.25
2023-01-12T08:11:52.383Z,1003.26
2023-01-12T08:12:52.374Z,1003.30
2023-01-12T08:13:52.360Z,1003.30
2023-01-12T08:14:52.339Z,1003.31
2023-01-12T08:15:52.340Z,1003.33
2023-01-12T08:16:52.332Z,1003.29
2023-01-12T08:17:52.324Z,1003.13
2023-01-12T08:18:52.335Z,1003.13
2023-01-12T08:19:52.286Z,1003.16
2023-01-12T08:20:52.270Z,1003.21
2023-01-12T08:21:52.267Z,1003.21
2023-01-12T08:22:52.264Z,1003.20
2023-01-12T08:23:52.245Z,1003.22
2023-01-12T08:24:52.269Z,1003.23
2023-01-12T08:25:52.229Z,1003.21
2023-01-12T08:26:52.279Z,1003.10
2023-01-12T08:27:52.212Z,1003.32
2023-01-12T08:28:52.184Z,1003.09
2023-01-12T08:29:52.214Z,1003.18
2023-01-12T08:30:52.184Z,1003.07
2023-01-12T08:31:52.168Z,1003.05
2023-01-12T08:32:52.168Z,1003.16
2023-01-12T08:33:52.134Z,1003.03
2023-01-12T08:34:52.129Z,1003.02
2023-01-12T08:35:52.130Z,1003.05
2023-01-12T08:36:52.107Z,1003.00
2023-01-12T08:37:52.132Z,1003.05
2023-01-12T08:38:52.093Z,1003.00
2023-01-12T08:39:52.105Z,1003.07
2023-01-12T08:40:52.064Z,1003.05
2023-01-12T08:41:52.057Z,1003.06
2023-01-12T08:42:52.056Z,1002.97
2023-01-12T08:43:52.054Z,1002.97
2023-01-12T08:44:52.054Z,1002.95
2023-01-12T08:45:52.010Z,1002.93
2023-01-12T08:46:52.072Z,1002.98
2023-01-12T08:47:52.005Z,1003.06
2023-01-12T08:48:51.997Z,1002.89
2023-01-12T08:49:51.964Z,1003.02
2023-01-12T08:50:52.066Z,1002.98
2023-01-12T08:51:51.963Z,1002.92
2023-01-12T08:52:51.927Z,1002.86
2023-01-12T08:53:51.963Z,1003.02
2023-01-12T08:54:52.141Z,1002.90
2023-01-12T08:55:52.833Z,1002.95
2023-01-12T08:56:51.892Z,1002.99
2023-01-12T08:57:51.919Z,1002.84
2023-01-12T08:58:51.888Z,1002.79
2023-01-12T08:59:51.861Z,1002.80
2023-01-12T09:00:51.930Z,1002.80
2023-01-12T09:01:52.020Z,1002.82
2023-01-12T09:02:51.857Z,1002.75
2023-01-12T09:03:51.830Z,1002.91
2023-01-12T09:04:51.815Z,1002.80
2023-01-12T09:05:51.815Z,1002.93
2023-01-12T09:06:51.789Z,1002.86
2023-01-12T09:07:51.785Z,1002.96
2023-01-12T09:08:51.775Z,1002.71
2023-01-12T09:09:51.750Z,1002.73
2023-01-12T09:10:51.742Z,1002.73
2023-01-12T09:11:51.743Z,1002.85
2023-01-12T09:12:51.717Z,1002.66
2023-01-12T09:13:51.737Z,1002.78
2023-01-12T09:14:51.710Z,1002.70
2023-01-12T09:16:01.305Z,1002.72
2023-01-12T09:16:52.707Z,1002.71
2023-01-12T09:17:51.668Z,1002.66
2023-01-12T09:18:51.659Z,1002.74
2023-01-12T09:19:51.664Z,1002.69
2023-01-12T09:20:51.632Z,1002.67
2023-01-12T09:21:51.625Z,1002.61
2023-01-12T09:22:51.605Z,1002.66
2023-01-12T09:23:51.602Z,1002.55
2023-01-12T09:24:51.607Z,1002.58
2023-01-12T09:25:51.582Z,1002.66
2023-01-12T09:26:51.590Z,1002.77
2023-01-12T09:27:51.568Z,1002.50
2023-01-12T09:28:51.577Z,1002.49
2023-01-12T09:29:51.612Z,1002.61
2023-01-12T09:30:51.801Z,1002.49
2023-01-12T09:31:51.605Z,1002.51
2023-01-12T09:32:51.549Z,1002.44
2023-01-12T09:33:51.503Z,1002.52
2023-01-12T09:34:51.493Z,1002.44
2023-01-12T09:35:51.500Z,1002.50
2023-01-12T09:36:51.472Z,1002.36
2023-01-12T09:37:51.445Z,1002.49
2023-01-12T09:38:51.464Z,1002.42
2023-01-12T09:39:51.433Z,1002.39
2023-01-12T09:40:51.462Z,1002.46
2023-01-12T09:41:51.435Z,1002.52
2023-01-12T09:42:51.399Z,1002.35
2023-01-12T09:43:51.396Z,1002.43
2023-01-12T09:44:51.410Z,1002.33
2023-01-12T09:45:51.422Z,1002.39
2023-01-12T09:46:51.391Z,1002.40
2023-01-12T09:47:53.545Z,1002.30
2023-01-12T09:48:51.345Z,1002.39
2023-01-12T09:49:55.813Z,1002.26
2023-01-12T09:50:52.368Z,1002.17
2023-01-12T09:51:51.346Z,1002.25
2023-01-12T09:52:51.303Z,1002.25
2023-01-12T09:53:51.305Z,1002.20
2023-01-12T09:54:51.272Z,1002.18
2023-01-12T09:55:51.276Z,1002.12
2023-01-12T09:56:51.267Z,1002.11
2023-01-12T09:57:51.265Z,1002.31
2023-01-12T09:58:51.237Z,1002.08
2023-01-12T09:59:51.233Z,1002.02
2023-01-12T10:00:51.282Z,1002.10
2023-01-12T10:01:51.340Z,1002.03
2023-01-12T10:02:51.430Z,1002.11
2023-01-12T10:03:51.192Z,1002.00
2023-01-12T10:04:51.170Z,1002.01
2023-01-12T10:05:51.177Z,1002.09
2023-01-12T10:06:51.144Z,1002.06
2023-01-12T10:07:51.159Z,1002.03
2023-01-12T10:08:51.199Z,1001.97
2023-01-12T10:09:51.122Z,1002.14
2023-01-12T10:10:51.174Z,1002.00
2023-01-12T10:11:51.120Z,1001.98
2023-01-12T10:12:51.083Z,1002.01
2023-01-12T10:13:51.090Z,1002.11
2023-01-12T10:14:51.089Z,1001.98
2023-01-12T10:15:51.055Z,1001.92
2023-01-12T10:16:51.051Z,1001.83
2023-01-12T10:17:52.331Z,1001.91
2023-01-12T10:18:52.760Z,1001.84
2023-01-12T10:19:51.123Z,1002.01
2023-01-12T10:20:51.107Z,1001.80
2023-01-12T10:21:50.990Z,1001.85
2023-01-12T10:22:50.989Z,1001.82
2023-01-12T10:23:50.961Z,1001.82
2023-01-12T10:24:50.953Z,1001.98
2023-01-12T10:25:50.968Z,1001.75
2023-01-12T10:26:50.972Z,1001.76
2023-01-12T10:27:50.938Z,1001.75
2023-01-12T10:28:50.912Z,1002.20
2023-01-12T10:29:50.918Z,1001.91
2023-01-12T10:30:50.918Z,1001.81
2023-01-12T10:31:50.908Z,1001.82
2023-01-12T10:32:50.884Z,1001.84
2023-01-12T10:33:50.867Z,1001.80
2023-01-12T10:34:50.913Z,1001.77
2023-01-12T10:35:50.843Z,1001.84
2023-01-12T10:36:50.820Z,1001.70
2023-01-12T10:37:50.832Z,1001.84
2023-01-12T10:38:50.818Z,1001.88
2023-01-12T10:39:50.792Z,1001.69
2023-01-12T10:40:50.826Z,1001.90
2023-01-12T10:41:50.779Z,1001.60
2023-01-12T10:42:50.752Z,1001.63
2023-01-12T10:43:50.761Z,1001.63
2023-01-12T10:44:50.745Z,1001.65
2023-01-12T10:45:50.805Z,1001.69
2023-01-12T10:46:50.715Z,1001.82
2023-01-12T10:47:50.705Z,1001.63
2023-01-12T10:48:50.690Z,1001.56
2023-01-12T10:49:50.687Z,1001.65
2023-01-12T10:50:50.717Z,1001.98
2023-01-12T10:51:50.681Z,1001.58
2023-01-12T10:52:50.678Z,1001.60
2023-01-12T10:53:50.652Z,1001.44
2023-01-12T10:54:50.638Z,1001.62
2023-01-12T10:55:50.624Z,1001.73
2023-01-12T10:56:50.602Z,1001.54
2023-01-12T10:57:50.617Z,1001.53
2023-01-12T10:58:50.599Z,1001.48
2023-01-12T10:59:50.586Z,1001.50
2023-01-12T11:00:50.855Z,1001.57
2023-01-12T11:01:50.691Z,1001.39
2023-01-12T11:02:50.588Z,1001.57
2023-01-12T11:03:50.627Z,1001.29
2023-01-12T11:04:50.543Z,1001.34
2023-01-12T11:05:50.524Z,1001.43
2023-01-12T11:06:50.512Z,1001.29
2023-01-12T11:07:50.494Z,1001.36
2023-01-12T11:08:50.521Z,1001.49
2023-01-12T11:09:50.485Z,1001.27
2023-01-12T11:10:50.457Z,1001.28
2023-01-12T11:11:50.447Z,1001.29
2023-01-12T11:12:50.462Z,1001.39
2023-01-12T11:13:50.507Z,1001.16
2023-01-12T11:14:50.417Z,1001.16
2023-01-12T11:15:50.419Z,1001.18
2023-01-12T11:16:50.490Z,1001.09
2023-01-12T11:17:50.399Z,1000.99
2023-01-12T11:18:50.403Z,1001.15
2023-01-12T11:19:50.397Z,1001.14
2023-01-12T11:20:50.410Z,1001.00
2023-01-12T11:21:50.355Z,1000.87
2023-01-12T11:22:50.363Z,1000.94
2023-01-12T11:23:50.336Z,1001.13
2023-01-12T11:24:50.309Z,1000.90
2023-01-12T11:25:50.295Z,1001.03
2023-01-12T11:26:50.308Z,1000.78
2023-01-12T11:27:50.333Z,1000.91
2023-01-12T11:28:50.266Z,1000.84
2023-01-12T11:29:50.262Z,1000.76
2023-01-12T11:30:50.333Z,1000.80
2023-01-12T11:31:50.257Z,1000.89
2023-01-12T11:32:50.223Z,1001.01
2023-01-12T11:33:50.220Z,1000.87
2023-01-12T11:34:50.218Z,1000.95
2023-01-12T11:35:50.199Z,1000.83
2023-01-12T11:36:50.197Z,1000.83
2023-01-12T11:37:50.181Z,1000.86
2023-01-12T11:38:50.187Z,1000.81
2023-01-12T11:39:50.145Z,1000.88
2023-01-12T11:40:50.141Z,1000.75
2023-01-12T11:41:50.128Z,1000.92
2023-01-12T11:42:50.132Z,1000.76
2023-01-12T11:43:50.123Z,1000.81
2023-01-12T11:44:50.102Z,1000.88
2023-01-12T11:45:50.095Z,1000.74
2023-01-12T11:46:50.112Z,1000.76
2023-01-12T11:47:58.711Z,1000.91
2023-01-12T11:48:50.046Z,1000.68
2023-01-12T11:49:50.036Z,1000.70
2023-01-12T11:50:50.036Z,1000.67
2023-01-12T11:51:50.020Z,1000.86
2023-01-12T11:52:50.055Z,1000.75
2023-01-12T11:53:50.047Z,1000.73
2023-01-12T11:54:50.018Z,1000.80
2023-01-12T11:55:49.980Z,1000.77
2023-01-12T11:56:49.974Z,1000.77
2023-01-12T11:57:49.952Z,1000.68
2023-01-12T11:58:49.950Z,1000.68
2023-01-12T11:59:49.921Z,1000.69
2023-01-12T12:00:49.947Z,1000.83
2023-01-12T12:01:49.919Z,1000.56
2023-01-12T12:02:49.891Z,1000.76
2023-01-12T12:03:49.949Z,1000.58
2023-01-12T12:04:49.892Z,1000.63
2023-01-12T12:05:49.871Z,1000.63